Flight Track Log - Related Links

Times and Time Zones

All times are in EDT time to prevent confusion due to time zone crossing. See the N1926A flight status page for this flight to view local times or setup timezone preferences in your user account.

Time Position Orientation Groundspeed Altitude Reporting Facility
EDT Latitude Longitude Course Direction KTS MPH feet Rate Location/Type
Fri 11:18:35 AM 44.8833 -93.2833 245° Southwest 166 191 3,000  Level Minneapolis TRACON
Fri 11:19:36 AM 44.8667 -93.3333 245° Southwest 167 192 4,800 1,537 Climbing Minneapolis TRACON
Fri 11:20:36 AM 44.8333 -93.3833 227° Southwest 206 237 6,100 1,400 Climbing Minneapolis TRACON
Fri 11:21:36 AM 44.7833 -93.4333 215° Southwest 209 241 7,600 1,467 Climbing Minneapolis TRACON
Fri 11:22:06 AM 44.7486 -93.4272 173° South 225 259 8,300 1,500 Climbing Minneapolis Center
Fri 11:23:08 AM 44.6853 -93.4069 167° South 235 270 9,900 1,452 Climbing Minneapolis Center
Fri 11:24:10 AM 44.6217 -93.3819 164° South 238 274 11,300 1,073 Climbing Minneapolis Center
Fri 11:25:11 AM 44.5722 -93.3050 132° Southeast 268 308 12,100 390 Climbing Minneapolis Center
Fri 11:26:13 AM 44.5011 -93.2047 135° Southeast 307 353 12,100 242 Level Minneapolis Center
Fri 11:27:15 AM 44.4383 -93.1200 136° Southeast 313 360 12,600 634 Climbing Minneapolis Center
Fri 11:28:16 AM 44.3769 -93.0406 137° Southeast 309 356 13,400 732 Climbing Minneapolis Center
Fri 11:29:18 AM 44.3131 -92.9647 140° Southeast 304 350 14,100 677 Climbing Minneapolis Center
Fri 11:30:20 AM 44.2436 -92.9061 149° Southeast 292 336 14,800 774 Climbing Minneapolis Center
Fri 11:31:22 AM 44.1739 -92.8533 151° Southeast 289 333 15,700 1,073 Climbing Minneapolis Center
Fri 11:32:23 AM 44.1042 -92.8067 154° Southeast 285 328 17,000 1,561 Climbing Minneapolis Center
Fri 11:33:25 AM 44.0247 -92.7567 156° South 268 308 18,900 1,500 Climbing Minneapolis Center
Fri 11:34:27 AM 43.9567 -92.7183 158° South 265 305 20,100 1,113 Climbing Minneapolis Center
Fri 11:35:29 AM 43.8869 -92.6781 157° South 268 308 21,200 1,122 Climbing Minneapolis Center
Fri 11:36:30 AM 43.8183 -92.6319 154° Southeast 271 312 22,400 1,122 Climbing Minneapolis Center
Fri 11:37:32 AM 43.7439 -92.5808 154° Southeast 272 313 23,500 968 Climbing Minneapolis Center
Fri 11:38:34 AM 43.6750 -92.5592 167° South 262 302 24,400 726 Climbing Minneapolis Center
Fri 11:39:36 AM 43.6103 -92.5053 149° Southeast 270 311 25,000 269 Climbing Minneapolis Center
Fri 11:40:48 AM 43.5236 -92.4400 151° Southeast 292 336 25,000  Level Chicago Center
Fri 11:41:50 AM 43.4492 -92.3817 150° Southeast 302 348 25,000  Level Chicago Center
Fri 11:42:41 AM 43.3750 -92.3231 150° Southeast 308 354 25,000  Level Minneapolis Center
Fri 11:43:43 AM 43.2992 -92.2681 152° Southeast 308 354 25,000  Level Minneapolis Center
Fri 11:44:44 AM 43.2236 -92.2147 153° Southeast 308 354 25,000  Level Minneapolis Center
Fri 11:45:46 AM 43.1469 -92.1606 153° Southeast 309 356 25,000  Level Minneapolis Center
Fri 11:46:48 AM 43.0703 -92.1053 152° Southeast 310 357 25,000  Level Minneapolis Center
Fri 11:47:49 AM 42.9928 -92.0511 153° Southeast 314 361 25,000  Level Minneapolis Center
Fri 11:48:51 AM 42.8992 -91.9886 154° Southeast 314 361 25,000  Level Minneapolis Center
Fri 11:49:53 AM 42.8200 -91.9394 156° South 314 361 25,000  Level Minneapolis Center
Fri 11:50:55 AM 42.7419 -91.8892 155° Southeast 314 361 25,000  Level Minneapolis Center
Fri 11:51:56 AM 42.6644 -91.8386 154° Southeast 314 361 25,000  Level Minneapolis Center
Fri 11:52:58 AM 42.5869 -91.7864 154° Southeast 315 362 25,000  Level Minneapolis Center
Fri 11:54:00 AM 42.4939 -91.7217 153° Southeast 315 362 25,000  Level Minneapolis Center
Fri 11:55:01 AM 42.4164 -91.6667 152° Southeast 315 362 25,000  Level Minneapolis Center
Fri 11:56:03 AM 42.3383 -91.6106 152° Southeast 316 364 25,000  Level Minneapolis Center
Fri 11:57:05 AM 42.2603 -91.5556 152° Southeast 316 364 25,000  Level Minneapolis Center
Fri 11:58:07 AM 42.1825 -91.5042 154° Southeast 316 364 25,000  Level Minneapolis Center
Fri 11:59:08 AM 42.0889 -91.4428 154° Southeast 316 364 25,000  Level Minneapolis Center
Fri 12:00:11 PM 42.0106 -91.3933 155° Southeast 316 364 25,000  Level Minneapolis Center
Fri 12:01:26 PM 41.9158 -91.3275 153° Southeast 314 361 25,000  Level Chicago Center
Fri 12:02:28 PM 41.8389 -91.2794 155° Southeast 309 356 25,000  Level Chicago Center
Fri 12:03:30 PM 41.7628 -91.2272 153° Southeast 309 356 25,000  Level Chicago Center
Fri 12:04:32 PM 41.6703 -91.1658 154° Southeast 309 356 25,000  Level Chicago Center
Fri 12:05:34 PM 41.5944 -91.1144 153° Southeast 309 356 25,000  Level Chicago Center
Fri 12:06:36 PM 41.5192 -91.0625 153° Southeast 308 354 25,000  Level Chicago Center
Fri 12:07:38 PM 41.4333 -91.0069 154° Southeast 308 354 25,000  Level Chicago Center
Fri 12:08:39 PM 41.3578 -90.9547 153° Southeast 308 354 25,000  Level Chicago Center
Fri 12:09:41 PM 41.2811 -90.9058 154° Southeast 307 353 25,000  Level Chicago Center
Fri 12:10:43 PM 41.2044 -90.8561 154° Southeast 308 354 25,000  Level Chicago Center
Fri 12:11:45 PM 41.1289 -90.8072 154° Southeast 304 350 25,000  Level Chicago Center
Fri 12:12:47 PM 41.0528 -90.7583 154° Southeast 304 350 25,000  Level Chicago Center
Fri 12:13:49 PM 40.9625 -90.6994 154° Southeast 304 350 25,000  Level Chicago Center
Fri 12:14:51 PM 40.8869 -90.6517 154° Southeast 304 350 25,000  Level Chicago Center
Fri 12:15:53 PM 40.8103 -90.6028 154° Southeast 304 350 25,000  Level Chicago Center
Fri 12:16:55 PM 40.7333 -90.5528 154° Southeast 306 352 25,000  Level Chicago Center
Fri 12:17:57 PM 40.6578 -90.5039 154° Southeast 306 352 25,000  Level Chicago Center
Fri 12:18:58 PM 40.5828 -90.4553 154° Southeast 306 352 25,000  Level Chicago Center
Fri 12:20:00 PM 40.4922 -90.3981 154° Southeast 305 351 25,000  Level Chicago Center
Fri 12:21:02 PM 40.4153 -90.3483 154° Southeast 306 352 25,000  Level Chicago Center
Fri 12:22:04 PM 40.3406 -90.3008 154° Southeast 305 351 25,000  Level Chicago Center
Fri 12:23:06 PM 40.2647 -90.2528 154° Southeast 305 351 25,000  Level Chicago Center
Fri 12:24:08 PM 40.1883 -90.2053 155° Southeast 305 351 25,000  Level Chicago Center
Fri 12:25:04 PM 40.1128 -90.1544 153° Southeast 305 351 25,000  Level Kansas City Center
Fri 12:26:06 PM 40.0364 -90.1078 155° Southeast 305 351 25,000  Level Kansas City Center
Fri 12:27:08 PM 39.9597 -90.0606 155° Southeast 305 351 25,000  Level Kansas City Center
Fri 12:28:10 PM 39.8678 -90.0017 154° Southeast 305 351 25,000  Level Kansas City Center
Fri 12:29:12 PM 39.7908 -89.9544 155° Southeast 305 351 25,000  Level Kansas City Center
Fri 12:30:14 PM 39.7144 -89.9069 154° Southeast 305 351 25,000  Level Kansas City Center
Fri 12:31:16 PM 39.6317 -89.8572 155° Southeast 305 351 25,000  Level Kansas City Center
Fri 12:32:18 PM 39.5550 -89.8081 154° Southeast 305 351 25,000  Level Kansas City Center
Fri 12:33:20 PM 39.4775 -89.7611 155° Southeast 305 351 25,000  Level Kansas City Center
Fri 12:34:22 PM 39.3997 -89.7150 155° Southeast 305 351 25,000  Level Kansas City Center
Fri 12:35:25 PM 39.3225 -89.6672 154° Southeast 306 352 25,000  Level Kansas City Center
Fri 12:36:27 PM 39.2447 -89.6189 154° Southeast 306 352 25,000  Level Kansas City Center
Fri 12:37:29 PM 39.1533 -89.5622 154° Southeast 310 357 25,000  Level Kansas City Center
Fri 12:38:31 PM 39.0742 -89.5133 154° Southeast 311 358 25,000  Level Kansas City Center
Fri 12:39:33 PM 38.9953 -89.4653 155° Southeast 311 358 25,000  Level Kansas City Center
Fri 12:40:35 PM 38.9181 -89.4169 154° Southeast 311 358 25,000  Level Kansas City Center
Fri 12:41:38 PM 38.8294 -89.3625 154° Southeast 311 358 25,000  Level Kansas City Center
Fri 12:42:39 PM 38.7442 -89.3108 155° Southeast 313 360 25,000  Level Kansas City Center
Fri 12:43:42 PM 38.6611 -89.2642 156° South 313 360 25,000  Level Kansas City Center
Fri 12:44:44 PM 38.5858 -89.2175 154° Southeast 313 360 25,000  Level Kansas City Center
Fri 12:45:46 PM 38.5058 -89.1703 155° Southeast 313 360 25,000  Level Kansas City Center
Fri 12:46:48 PM 38.4264 -89.1233 155° Southeast 313 360 25,000  Level Kansas City Center
Fri 12:47:50 PM 38.3450 -89.0753 155° Southeast 313 360 25,000  Level Kansas City Center
Fri 12:48:52 PM 38.2661 -89.0269 154° Southeast 314 361 25,000  Level Kansas City Center
Fri 12:49:54 PM 38.1892 -88.9775 153° Southeast 313 360 25,000  Level Kansas City Center
Fri 12:50:56 PM 38.0933 -88.9219 155° Southeast 313 360 25,000  Level Kansas City Center
Fri 12:51:58 PM 38.0142 -88.8764 156° South 313 360 25,000  Level Kansas City Center
Fri 12:53:00 PM 37.9347 -88.8322 156° South 313 360 25,000  Level Kansas City Center
Fri 12:54:02 PM 37.8547 -88.7869 156° South 313 360 25,000  Level Kansas City Center
Fri 12:55:04 PM 37.7669 -88.7339 154° Southeast 313 360 25,000  Level Kansas City Center
Fri 12:56:06 PM 37.6814 -88.6836 155° Southeast 313 360 25,000  Level Kansas City Center
Fri 12:57:08 PM 37.6014 -88.6367 155° Southeast 314 361 25,000  Level Kansas City Center
Fri 12:58:10 PM 37.5219 -88.5903 155° Southeast 314 361 25,000  Level Kansas City Center
Fri 12:59:13 PM 37.4481 -88.5472 155° Southeast 314 361 25,000  Level Kansas City Center
Fri 01:00:15 PM 37.3528 -88.4906 155° Southeast 314 361 25,000  Level Kansas City Center
Fri 01:01:17 PM 37.2739 -88.4458 156° South 314 361 25,000  Level Kansas City Center
Fri 01:02:38 PM 37.1756 -88.3881 155° Southeast 315 362 25,000  Level Memphis Center
Fri 01:03:40 PM 37.0786 -88.3342 156° South 315 362 25,000  Level Memphis Center
Fri 01:04:42 PM 36.9989 -88.2897 156° South 315 362 25,000  Level Memphis Center
Fri 01:05:44 PM 36.9189 -88.2436 155° Southeast 315 362 25,000  Level Memphis Center
Fri 01:06:46 PM 36.8375 -88.1981 156° South 316 364 25,000  Level Memphis Center
Fri 01:07:48 PM 36.7572 -88.1519 155° Southeast 316 364 25,000  Level Memphis Center
Fri 01:08:50 PM 36.6642 -88.0983 155° Southeast 316 364 25,000  Level Memphis Center
Fri 01:09:52 PM 36.5842 -88.0533 156° South 316 364 25,000  Level Memphis Center
Fri 01:10:54 PM 36.5044 -88.0056 154° Southeast 316 364 25,000  Level Memphis Center
Fri 01:11:56 PM 36.4242 -87.9594 155° Southeast 316 364 25,000  Level Memphis Center
Fri 01:12:58 PM 36.3442 -87.9144 156° South 316 364 25,000  Level Memphis Center
Fri 01:14:00 PM 36.2647 -87.8686 155° Southeast 315 362 25,000  Level Memphis Center
Fri 01:15:02 PM 36.1844 -87.8256 157° South 315 362 25,000  Level Memphis Center
Fri 01:16:04 PM 36.0911 -87.7761 157° South 314 361 25,000  Level Memphis Center
Fri 01:17:07 PM 36.0086 -87.7381 160° South 314 361 25,000  Level Memphis Center
Fri 01:18:09 PM 35.9267 -87.6972 158° South 315 362 25,000  Level Memphis Center
Fri 01:19:11 PM 35.8442 -87.6519 156° South 316 364 25,000  Level Memphis Center
Fri 01:20:13 PM 35.7661 -87.6036 153° Southeast 316 364 25,000  Level Memphis Center
Fri 01:21:15 PM 35.6883 -87.5522 152° Southeast 316 364 25,000  Level Memphis Center
Fri 01:22:17 PM 35.5964 -87.4967 154° Southeast 316 364 25,000  Level Memphis Center
Fri 01:23:19 PM 35.5172 -87.4500 154° Southeast 315 362 25,000  Level Memphis Center
Fri 01:24:21 PM 35.4386 -87.4075 156° South 312 359 25,000  Level Memphis Center
Fri 01:25:23 PM 35.3617 -87.3700 158° South 310 357 25,000  Level Memphis Center
Fri 01:26:25 PM 35.2817 -87.3306 158° South 310 357 25,000  Level Memphis Center
Fri 01:27:27 PM 35.1869 -87.2822 157° South 309 356 25,000  Level Memphis Center
Fri 01:28:30 PM 35.1072 -87.2403 157° South 309 356 25,000  Level Memphis Center
Fri 01:29:32 PM 35.0289 -87.1967 155° Southeast 309 356 25,000  Level Memphis Center
Fri 01:30:34 PM 34.9494 -87.1533 156° South 309 356 25,000  Level Memphis Center
Fri 01:31:36 PM 34.8703 -87.1086 155° Southeast 310 357 25,000  Level Memphis Center
Fri 01:32:38 PM 34.7906 -87.0633 155° Southeast 311 358 25,000  Level Memphis Center
Fri 01:33:40 PM 34.7108 -87.0192 156° South 311 358 25,000  Level Memphis Center
Fri 01:34:42 PM 34.6150 -86.9675 156° South 311 358 25,000  Level Memphis Center
Fri 01:35:44 PM 34.5356 -86.9256 156° South 311 358 25,000  Level Memphis Center
Fri 01:36:46 PM 34.4567 -86.8853 157° South 311 358 25,000  Level Memphis Center
Fri 01:37:48 PM 34.3781 -86.8447 157° South 310 357 25,000  Level Memphis Center
Fri 01:38:50 PM 34.2994 -86.8036 157° South 310 357 25,000  Level Memphis Center
Fri 01:39:53 PM 34.2217 -86.7619 156° South 308 354 25,000  Level Memphis Center
Fri 01:40:55 PM 34.1283 -86.7122 156° South 307 353 25,000  Level Memphis Center
Fri 01:41:57 PM 34.0500 -86.6700 156° South 307 353 25,000  Level Memphis Center
Fri 01:42:59 PM 33.9728 -86.6272 155° Southeast 307 353 25,000  Level Memphis Center
Fri 01:43:29 PM 33.9367 -86.6078 156° South 314 361 25,000 -467 Level Atlanta Center
Fri 01:44:29 PM 33.8539 -86.5678 158° South 314 361 24,300 -750 Descending Atlanta Center
Fri 01:45:29 PM 33.7733 -86.5278 158° South 314 361 23,500 -1,200 Descending Atlanta Center
Fri 01:46:29 PM 33.6886 -86.4831 156° South 319 367 21,900 -1,550 Descending Atlanta Center
Fri 01:47:29 PM 33.6039 -86.4406 157° South 325 374 20,400 -1,700 Descending Atlanta Center
Fri 01:48:29 PM 33.5108 -86.3883 155° Southeast 331 381 18,500 -1,700 Descending Atlanta Center
Fri 01:49:29 PM 33.4283 -86.3461 157° South 331 381 17,000 -1,450 Descending Atlanta Center
Fri 01:50:29 PM 33.3436 -86.3017 156° South 331 381 15,600 -1,650 Descending Atlanta Center
Fri 01:51:29 PM 33.2608 -86.2572 156° South 331 381 13,700 -1,800 Descending Atlanta Center
Fri 01:52:29 PM 33.1781 -86.2156 157° South 331 381 12,000 -1,300 Descending Atlanta Center
Fri 01:53:29 PM 33.1036 -86.1764 156° South 331 381 11,100 4,333 Descending Atlanta Center
Fri 01:55:29 PM 32.9442 -86.0983 158° South 331 381 25,000 4,633 Climbing Atlanta Center
Fri 01:56:29 PM 32.8986 -86.0750 157° South 331 381 25,000  Level Atlanta Center
Fri 02:04:00 PM 32.7937 -86.0141 161° South  Level FlightAware Approximate
Fri 02:11:00 PM 32.5149 -85.8762 157° South  Level Estimated
Fri 02:12:00 PM 32.5149 -85.8762 157° South  Level Estimated

Login

Don't have an account? Register now (free) for customized features, flight alerts, and more!